createdAt,value
2017-08-23T08:13:10.903Z,1896
2017-08-23T08:15:12.522Z,2360
2017-08-23T08:17:14.822Z,2456
2017-08-23T08:19:16.273Z,2568
2017-08-23T08:21:17.822Z,2452
2017-08-23T08:24:00.558Z,2572
2017-08-23T08:26:02.006Z,2668
2017-08-23T08:28:03.444Z,2608
2017-08-23T08:30:04.986Z,2740
2017-08-23T08:32:06.560Z,2632
2017-08-23T08:34:09.497Z,2676
2017-08-23T08:36:11.044Z,2712
2017-08-23T08:38:12.588Z,2820
2017-08-23T08:40:14.210Z,2872
2017-08-23T08:42:15.850Z,2944
2017-08-23T08:44:17.704Z,3080
2017-08-23T08:46:19.297Z,3112
2017-08-23T08:48:21.122Z,3084
2017-08-23T08:50:22.953Z,3000
2017-08-23T08:52:24.860Z,2996
2017-08-23T08:54:26.377Z,3128
2017-08-23T08:56:27.962Z,3120
2017-08-23T08:59:10.479Z,3092
2017-08-23T09:01:12.352Z,3112
2017-08-23T09:03:13.802Z,3104
2017-08-23T09:05:15.311Z,2900
2017-08-23T09:07:16.754Z,3032
2017-08-23T09:09:18.303Z,2980
2017-08-23T09:11:19.743Z,2844
2017-08-23T09:13:21.246Z,2972
2017-08-23T09:15:22.778Z,2972
2017-08-23T09:17:24.216Z,2868
2017-08-23T09:19:25.753Z,2820
2017-08-23T09:21:27.496Z,2800
2017-08-23T09:23:29.026Z,2920
2017-08-23T09:25:30.628Z,2952
2017-08-23T09:27:32.086Z,2900
2017-08-23T09:29:33.545Z,2952
2017-08-23T09:31:34.977Z,2868
2017-08-23T09:33:36.420Z,2852
2017-08-23T09:35:37.875Z,2892
2017-08-23T09:37:39.436Z,2960
2017-08-23T09:39:41.028Z,3008
2017-08-23T09:41:42.466Z,3028
2017-08-23T09:43:43.905Z,2868
2017-08-23T09:45:45.578Z,2756
2017-08-23T09:47:47.021Z,2452
2017-08-23T09:49:48.467Z,2696
2017-08-23T09:51:50.146Z,2352
2017-08-23T09:53:51.607Z,2504
2017-08-23T09:55:53.060Z,2948
2017-08-23T09:57:54.510Z,3196
2017-08-23T09:59:56.193Z,3328
2017-08-23T10:01:58.022Z,3380
2017-08-23T10:03:59.712Z,3384
2017-08-23T10:06:01.174Z,3376
2017-08-23T10:08:02.843Z,3388
2017-08-23T10:10:04.361Z,3368
2017-08-23T10:12:06.256Z,3348
2017-08-23T10:14:07.731Z,3324
2017-08-23T10:16:09.568Z,3308
2017-08-23T10:18:11.144Z,3272
2017-08-23T10:20:12.637Z,3240
2017-08-23T10:22:14.142Z,3212
2017-08-23T10:24:15.592Z,3192
2017-08-23T10:26:17.076Z,3160
2017-08-23T10:28:18.647Z,3152
2017-08-23T10:30:20.155Z,3132
2017-08-23T10:32:21.652Z,3096
2017-08-23T10:34:23.465Z,3056
2017-08-23T10:36:25.012Z,3032
2017-08-23T10:38:26.738Z,2996
2017-08-23T10:40:28.248Z,2960
2017-08-23T10:42:29.780Z,2900
2017-08-23T10:44:31.316Z,2884
2017-08-23T10:46:32.808Z,2696
2017-08-23T10:48:34.273Z,2696
2017-08-23T10:50:35.807Z,2676
2017-08-23T10:52:37.395Z,2636
2017-08-23T10:54:39.012Z,2616
2017-08-23T10:56:40.580Z,2584
2017-08-23T10:58:42.173Z,2576
2017-08-23T11:00:43.916Z,2532
2017-08-23T11:03:26.769Z,2580
2017-08-23T11:06:09.271Z,2564
2017-08-23T11:08:11.698Z,2524
2017-08-23T11:10:13.080Z,2500
2017-08-23T11:12:14.537Z,2476
2017-08-23T11:14:15.984Z,2456
2017-08-23T11:16:17.421Z,2396
2017-08-23T11:18:19.612Z,2456
2017-08-23T11:20:22.197Z,2432
2017-08-23T11:22:23.573Z,2408
2017-08-23T11:25:07.413Z,2368
2017-08-23T11:27:09.607Z,2364
2017-08-23T11:29:12.360Z,2344
2017-08-23T11:31:13.961Z,2296
2017-08-23T11:33:15.473Z,2324
2017-08-23T11:35:17.043Z,2272
2017-08-23T11:37:19.365Z,2240
2017-08-23T11:39:20.910Z,2232
2017-08-23T11:41:22.472Z,2220
2017-08-23T11:43:24.052Z,2196
2017-08-23T11:45:28.313Z,2152
2017-08-23T11:47:29.910Z,2148
2017-08-23T11:49:31.647Z,2156
2017-08-23T11:51:33.164Z,2180
2017-08-23T11:53:34.898Z,2168
2017-08-23T11:55:36.573Z,2164
2017-08-23T11:57:43.453Z,2172
2017-08-23T11:59:48.270Z,2148
2017-08-23T12:01:49.864Z,2104
2017-08-23T12:03:57.211Z,2064
2017-08-23T12:05:58.858Z,2016
2017-08-23T12:08:05.832Z,1836
2017-08-23T12:10:48.722Z,2016
2017-08-23T12:12:50.467Z,1952
2017-08-23T12:14:54.726Z,1700
2017-08-23T12:17:00.276Z,1804
2017-08-23T12:19:02.214Z,1852
2017-08-23T12:21:45.526Z,1400
2017-08-23T12:23:47.588Z,1772
2017-08-23T12:25:50.602Z,1784
2017-08-23T12:27:52.200Z,1916
2017-08-23T12:29:53.640Z,1652
2017-08-23T12:31:55.412Z,1932
2017-08-23T12:34:37.184Z,1796
2017-08-23T12:36:38.623Z,1836
2017-08-23T12:38:40.109Z,1852
2017-08-23T12:40:41.541Z,1932
2017-08-23T12:42:42.981Z,1788
2017-08-23T12:44:44.423Z,1884
2017-08-23T12:46:45.884Z,1960
2017-08-23T12:48:47.332Z,1936
2017-08-23T12:50:48.768Z,1848
2017-08-23T12:52:50.213Z,1668
2017-08-23T12:54:51.649Z,1776
2017-08-23T12:56:53.104Z,1704
2017-08-23T12:58:54.557Z,1712
2017-08-23T13:00:56.002Z,1764
2017-08-23T13:02:57.465Z,1800
2017-08-23T13:04:58.912Z,1732
2017-08-23T13:07:00.353Z,1756
2017-08-23T13:09:01.801Z,1704
2017-08-23T13:11:03.249Z,1692
2017-08-23T13:13:04.701Z,1616
2017-08-23T13:15:06.143Z,1604
2017-08-23T13:17:07.584Z,1548
2017-08-23T13:19:09.029Z,1508
2017-08-23T13:21:10.482Z,1444
2017-08-23T13:23:11.949Z,1396
2017-08-23T13:25:13.393Z,1400
2017-08-23T13:27:14.840Z,1436
2017-08-23T13:29:16.293Z,1416
2017-08-23T13:31:17.736Z,1612
2017-08-23T13:33:19.164Z,1572
2017-08-23T13:35:20.620Z,1612
2017-08-23T13:37:22.089Z,1652
2017-08-23T13:39:23.511Z,1684
2017-08-23T13:41:24.960Z,1696
2017-08-23T13:43:26.404Z,1684
2017-08-23T13:45:27.858Z,1644
2017-08-23T13:47:29.298Z,1644
2017-08-23T13:49:30.740Z,1520
2017-08-23T13:51:32.182Z,1468
2017-08-23T13:53:33.630Z,1492
2017-08-23T13:55:35.073Z,1532
2017-08-23T13:57:36.516Z,1412
2017-08-23T13:59:37.958Z,1428
2017-08-23T14:01:39.405Z,1452
2017-08-23T14:03:40.845Z,1480
2017-08-23T14:05:42.290Z,1420
2017-08-23T14:07:43.748Z,1372
2017-08-23T14:09:45.192Z,1240
2017-08-23T14:11:46.639Z,1108
2017-08-23T14:13:48.087Z,1344
2017-08-23T14:15:49.530Z,1452
2017-08-23T14:17:50.975Z,1444
2017-08-23T14:19:52.423Z,1416
2017-08-23T14:21:53.871Z,1324
2017-08-23T14:23:55.326Z,1100
2017-08-23T14:25:56.769Z,976
2017-08-23T14:27:58.217Z,1092
2017-08-23T14:29:59.661Z,1088
2017-08-23T14:32:01.103Z,1132
2017-08-23T14:34:02.554Z,1112
2017-08-23T14:36:03.996Z,1080
2017-08-23T14:38:05.440Z,1092
2017-08-23T14:40:06.883Z,1088
2017-08-23T14:42:49.333Z,1068
2017-08-23T14:44:50.779Z,1104
2017-08-23T14:46:52.222Z,1132
2017-08-23T14:48:53.668Z,1136
2017-08-23T14:50:55.115Z,1056
2017-08-23T14:52:56.557Z,1036
2017-08-23T14:54:58.027Z,1116
2017-08-23T14:56:59.436Z,1140
2017-08-23T14:59:00.897Z,1156
2017-08-23T15:01:02.343Z,1152
2017-08-23T15:03:03.811Z,1124
2017-08-23T15:05:05.234Z,1056
2017-08-23T15:07:06.691Z,1004
2017-08-23T15:09:08.128Z,984
2017-08-23T15:11:09.575Z,960
2017-08-23T15:13:11.016Z,936
2017-08-23T15:15:12.468Z,872
2017-08-23T15:17:13.902Z,760
2017-08-23T15:19:15.373Z,644
2017-08-23T15:21:16.886Z,568
2017-08-23T15:23:18.338Z,668
2017-08-23T15:25:19.780Z,700
2017-08-23T15:27:21.225Z,700
2017-08-23T15:29:22.665Z,696
2017-08-23T15:31:24.127Z,684
2017-08-23T15:33:25.558Z,692
2017-08-23T15:35:27.005Z,688
2017-08-23T15:37:28.435Z,640
2017-08-23T15:39:29.876Z,588
2017-08-23T15:41:31.326Z,564
2017-08-23T15:43:32.770Z,568
2017-08-23T15:45:34.210Z,512
2017-08-23T15:47:35.651Z,496
2017-08-23T15:49:37.094Z,504
2017-08-23T15:51:38.562Z,500
2017-08-23T15:53:40.004Z,492
2017-08-23T15:55:41.446Z,488
2017-08-23T15:57:42.875Z,484
2017-08-23T15:59:44.326Z,476
2017-08-23T16:01:45.773Z,476
2017-08-23T16:03:47.254Z,484
2017-08-23T16:05:48.704Z,488
2017-08-23T16:07:50.147Z,480
2017-08-23T16:09:51.580Z,476
2017-08-23T16:11:53.027Z,468
2017-08-23T16:13:54.464Z,452
2017-08-23T16:15:55.915Z,444
2017-08-23T16:17:57.361Z,432
2017-08-23T16:19:58.801Z,420
2017-08-23T16:22:00.270Z,412
2017-08-23T16:24:01.707Z,400
2017-08-23T16:26:03.168Z,384
2017-08-23T16:28:04.613Z,372
2017-08-23T16:30:06.057Z,372
2017-08-23T16:32:07.501Z,368
2017-08-23T16:34:08.941Z,368
2017-08-23T16:36:10.383Z,376
2017-08-23T16:38:11.846Z,384
2017-08-23T16:40:13.275Z,376
2017-08-23T16:42:14.714Z,368
2017-08-23T16:44:16.155Z,372
2017-08-23T16:46:17.590Z,376
2017-08-23T16:48:19.041Z,376
2017-08-23T16:50:20.489Z,364
2017-08-23T16:52:21.933Z,352
2017-08-23T16:54:23.377Z,336
2017-08-23T16:56:24.812Z,320
2017-08-23T16:58:26.252Z,304
2017-08-23T17:00:27.697Z,292
2017-08-23T17:02:29.135Z,288
2017-08-23T17:04:30.577Z,276
2017-08-23T17:06:32.021Z,264
2017-08-23T17:08:33.454Z,244
2017-08-23T17:10:34.897Z,228
2017-08-23T17:12:36.341Z,236
2017-08-23T17:14:37.783Z,232
2017-08-23T17:16:39.256Z,228
2017-08-23T17:18:40.770Z,224
2017-08-23T17:20:42.216Z,220
2017-08-23T17:22:43.715Z,216
2017-08-23T17:24:45.213Z,212
2017-08-23T17:26:46.786Z,200
2017-08-23T17:28:48.272Z,196
2017-08-23T17:30:49.749Z,188
2017-08-23T17:32:51.203Z,184
2017-08-23T17:34:52.634Z,172
2017-08-23T17:36:54.071Z,164
2017-08-23T17:38:55.514Z,156
2017-08-23T17:40:56.959Z,148
2017-08-23T17:42:58.397Z,148
2017-08-23T17:45:40.881Z,136
2017-08-23T17:47:42.318Z,128
2017-08-23T17:49:43.748Z,120
2017-08-23T17:51:45.192Z,112
2017-08-23T17:53:46.630Z,108
2017-08-23T17:55:48.078Z,100
2017-08-23T17:58:30.489Z,88
2017-08-23T18:00:31.924Z,80
2017-08-23T18:02:33.362Z,72
2017-08-23T18:05:15.784Z,68
2017-08-23T18:07:17.225Z,64
2017-08-23T18:09:18.660Z,56
2017-08-23T18:11:20.094Z,52
2017-08-23T18:13:21.533Z,48
2017-08-23T18:15:23.021Z,44
2017-08-23T18:17:24.448Z,40
2017-08-23T18:19:25.888Z,32
2017-08-23T18:21:27.325Z,28
2017-08-23T18:23:28.776Z,24
2017-08-23T18:25:30.247Z,20
2017-08-23T18:27:31.679Z,16
2017-08-23T18:29:33.125Z,16
2017-08-23T18:31:34.567Z,8
2017-08-23T18:33:35.998Z,4
2017-08-23T18:35:37.424Z,8
2017-08-23T18:37:38.934Z,4
2017-08-23T18:39:40.378Z,8
2017-08-23T18:41:41.812Z,4
2017-08-23T18:43:43.264Z,4
2017-08-23T18:45:44.704Z,0
2017-08-23T18:47:46.141Z,0
2017-08-23T18:49:47.646Z,0
2017-08-23T18:51:49.110Z,0
2017-08-23T18:53:50.630Z,0
2017-08-23T18:55:52.056Z,0
2017-08-23T18:57:53.488Z,0
2017-08-23T18:59:54.926Z,0
2017-08-23T19:01:56.365Z,0
2017-08-23T19:03:57.799Z,0
2017-08-23T19:05:59.237Z,0
2017-08-23T19:08:00.669Z,0
2017-08-23T19:10:02.110Z,0
2017-08-23T19:12:03.551Z,0
2017-08-23T19:14:04.983Z,0
2017-08-23T19:16:06.414Z,0
2017-08-23T19:18:07.853Z,0
2017-08-23T19:20:50.274Z,0
2017-08-23T19:22:51.712Z,0
2017-08-23T19:24:53.147Z,0
2017-08-23T19:26:54.584Z,0
2017-08-23T19:28:56.013Z,0
2017-08-23T19:30:57.448Z,0
2017-08-23T19:32:58.879Z,0
2017-08-23T19:35:00.333Z,0
2017-08-23T19:37:01.769Z,0
2017-08-23T19:39:03.204Z,0
2017-08-23T19:41:04.638Z,0
2017-08-23T19:43:06.074Z,0
2017-08-23T19:45:07.506Z,0
2017-08-23T19:47:08.938Z,0
2017-08-23T19:49:10.376Z,0
2017-08-23T19:51:11.801Z,0
2017-08-23T19:53:13.246Z,0
2017-08-23T19:55:14.682Z,0
2017-08-23T19:57:16.118Z,0
2017-08-23T19:59:17.550Z,0
2017-08-23T20:01:19.035Z,0
2017-08-23T20:03:20.503Z,0
2017-08-23T20:05:21.967Z,0
2017-08-23T20:07:23.439Z,0
2017-08-23T20:09:24.923Z,0
2017-08-23T20:11:26.389Z,0
2017-08-23T20:13:27.866Z,0
2017-08-23T20:15:29.364Z,0
2017-08-23T20:17:30.793Z,0
2017-08-23T20:19:32.239Z,0
2017-08-23T20:21:33.685Z,0
2017-08-23T20:23:35.118Z,0
2017-08-23T20:25:36.563Z,0
2017-08-23T20:28:19.002Z,0
2017-08-23T20:30:20.433Z,0
2017-08-23T20:32:21.871Z,0
2017-08-23T20:34:23.303Z,0
2017-08-23T20:36:24.736Z,0
2017-08-23T20:38:26.170Z,0
2017-08-23T20:40:27.597Z,0
2017-08-23T20:42:29.034Z,0
2017-08-23T20:44:30.462Z,0
2017-08-23T20:46:31.901Z,0
2017-08-23T20:48:33.336Z,0
2017-08-23T20:50:34.765Z,0
2017-08-23T20:52:36.207Z,0
2017-08-23T20:54:37.631Z,0
2017-08-23T20:56:39.072Z,0
2017-08-23T20:58:40.603Z,0
2017-08-23T21:00:42.040Z,0
2017-08-23T21:02:43.619Z,0
2017-08-23T21:04:45.065Z,0
2017-08-23T21:06:46.497Z,0
2017-08-23T21:08:47.947Z,0
2017-08-23T21:11:30.372Z,0
2017-08-23T21:13:31.803Z,0
2017-08-23T21:15:33.230Z,0
2017-08-23T21:17:34.670Z,0
2017-08-23T21:20:17.137Z,0
2017-08-23T21:22:18.569Z,0
2017-08-23T21:24:19.998Z,0
2017-08-23T21:26:21.432Z,0
2017-08-23T21:28:22.862Z,0
2017-08-23T21:30:24.289Z,0
2017-08-23T21:32:25.721Z,0
2017-08-23T21:34:27.153Z,0
2017-08-23T21:36:28.585Z,0
2017-08-23T21:38:30.020Z,0
2017-08-23T21:40:31.451Z,0
2017-08-23T21:42:32.888Z,0
2017-08-23T21:44:34.316Z,0
2017-08-23T21:46:35.753Z,0
2017-08-23T21:48:37.183Z,0
2017-08-23T21:50:38.619Z,0
2017-08-23T21:52:40.049Z,0
2017-08-23T21:54:41.485Z,0
2017-08-23T21:56:42.914Z,0
2017-08-23T21:58:44.356Z,0
2017-08-23T22:00:45.796Z,0
2017-08-23T22:02:47.220Z,0
2017-08-23T22:04:48.659Z,0
2017-08-23T22:06:50.096Z,0
2017-08-23T22:09:32.501Z,0
2017-08-23T22:11:33.945Z,0
2017-08-23T22:13:35.373Z,0
2017-08-23T22:15:36.803Z,0
2017-08-23T22:17:38.234Z,0
2017-08-23T22:19:39.668Z,0
2017-08-23T22:21:41.099Z,0
2017-08-23T22:24:23.520Z,0
2017-08-23T22:26:24.956Z,0
2017-08-23T22:28:26.388Z,0
2017-08-23T22:30:27.838Z,0
2017-08-23T22:32:29.266Z,0
2017-08-23T22:34:30.714Z,0
2017-08-23T22:37:13.123Z,0
2017-08-23T22:39:14.554Z,0
2017-08-23T22:41:15.980Z,0
2017-08-23T22:43:17.419Z,0
2017-08-23T22:45:18.850Z,0
2017-08-23T22:47:20.282Z,0
2017-08-23T22:49:21.766Z,0
2017-08-23T22:51:23.197Z,0
2017-08-23T22:53:24.628Z,0
2017-08-23T22:55:26.058Z,0
2017-08-23T22:57:27.494Z,0
2017-08-23T22:59:28.925Z,0
2017-08-23T23:01:30.357Z,0
2017-08-23T23:03:31.795Z,0
2017-08-23T23:05:33.218Z,0
2017-08-23T23:07:34.660Z,0
2017-08-23T23:09:36.089Z,0
2017-08-23T23:11:37.525Z,0
2017-08-23T23:13:38.955Z,0
2017-08-23T23:15:40.389Z,0
2017-08-23T23:17:41.821Z,0
2017-08-23T23:19:43.253Z,0
2017-08-23T23:21:44.683Z,0
2017-08-23T23:23:46.115Z,0
2017-08-23T23:25:47.547Z,0
2017-08-23T23:27:48.977Z,0
2017-08-23T23:30:31.419Z,0
2017-08-23T23:32:32.842Z,0
2017-08-23T23:34:34.273Z,0
2017-08-23T23:36:35.708Z,0
2017-08-23T23:38:37.132Z,0
2017-08-23T23:40:38.562Z,0
2017-08-23T23:42:39.997Z,0
2017-08-23T23:44:41.424Z,0
2017-08-23T23:46:42.857Z,0
2017-08-23T23:48:44.288Z,0
2017-08-23T23:50:45.718Z,0
2017-08-23T23:52:47.152Z,0
2017-08-23T23:54:48.585Z,0
2017-08-23T23:56:50.019Z,0
2017-08-23T23:58:51.453Z,0
